Latest Weather Observations for Kalumburu

IDW60801

Issued at 11:32 pm WST Saturday 28 February 2015 (issued every 30 minutes, with the page automatically refreshed every 10 minutes)

About weather observations | Map of weather stations | Latest weather observations for WA | Other Formats
Station Details ID: 001019 Name: KALUMBURU Lat: -14.30 Lon: 126.65 Height: 23.0 m
Data from the previous 72 hours. | See also: Recent months at Kalumburu
Date/Time
WST
Temp
°C
App
Temp
°C
Dew
Point
Rel
Hum
%
Delta-T
°C
Wind Press
QNH
hPa
Press
MSL
hPa
Rain
since 9 am
mm
Dir
 
Spd
km/h
Gust
km/h
Spd
kts
Gust
kts
28/11:30pm 24.3 29.2 22.4 89 1.3 CALM 0 0 0 0 1006.9 1006.7 0.4
28/11:00pm 24.3 29.1 22.2 88 1.4 CALM 0 0 0 0 1007.2 1007.0 0.4
28/10:30pm 24.5 29.4 22.4 88 1.4 CALM 0 0 0 0 1007.7 1007.5 0.2
28/10:00pm 24.4 28.0 22.3 88 1.4 SSE 7 13 4 7 1008.0 1007.8 0.2
28/09:30pm 24.3 29.0 22.0 87 1.5 CALM 0 0 0 0 1008.2 1008.0 0.2
28/09:00pm 24.7 28.8 22.2 86 1.7 W 4 7 2 4 1008.1 1007.9 0.2
28/08:30pm 24.4 27.8 21.7 85 1.8 S 6 9 3 5 1007.6 1007.4 0.2
28/08:00pm 24.3 27.1 21.6 85 1.8 SSE 9 15 5 8 1007.7 1007.5 0.2
28/07:30pm 24.4 28.0 21.3 83 2.0 SW 4 6 2 3 1007.6 1007.4 0.2
28/07:00pm 24.5 27.6 21.4 83 2.1 SSW 7 9 4 5 1007.7 1007.5 0.2
28/06:30pm 24.4 27.6 21.7 85 1.8 SSE 7 15 4 8 1007.5 1007.3 0.2
28/06:00pm 24.5 25.8 21.6 84 1.9 S 17 24 9 13 1007.0 1006.8 0.0
28/05:30pm 25.7 26.0 20.7 74 3.3 S 20 32 11 17 1006.9 1006.7 0.0
28/05:00pm 30.6 33.6 22.7 62 5.4 W 11 19 6 10 1005.6 1005.4 0.0
28/04:30pm 30.9 33.4 22.5 61 5.7 WNW 13 20 7 11 1004.3 1004.1 0.0
28/04:00pm 31.8 34.1 22.8 59 6.2 WNW 15 20 8 11 1003.7 1003.5 0.0
28/03:30pm 32.8 35.4 22.6 55 7.0 NNW 13 19 7 10 1003.9 1003.7 0.0
28/03:00pm 32.6 34.9 23.5 58 6.3 N 17 24 9 13 1003.9 1003.7 0.0
28/02:30pm 32.7 35.6 23.1 57 6.6 NNW 13 19 7 10 1004.4 1004.2 0.0
28/02:00pm 31.5 35.1 23.1 61 5.8 NW 9 17 5 9 1004.8 1004.6 0.0
28/01:30pm 30.6 31.8 21.4 58 6.2 NW 17 26 9 14 1005.3 1005.1 0.0
28/01:00pm 32.7 34.5 23.6 58 6.3 NW 20 30 11 16 1005.7 1005.5 0.0
28/12:30pm 34.2 37.9 23.2 52 7.6 NW 9 17 5 9 1005.9 1005.7 0.0
28/12:00pm 34.3 37.7 22.0 48 8.4 NW 7 15 4 8 1006.6 1006.4 0.0
28/11:30am 33.7 37.7 23.1 54 7.3 WSW 7 11 4 6 1007.1 1006.9 0.0
28/11:00am 33.4 37.2 23.4 55 7.0 WSW 9 13 5 7 1007.7 1007.5 0.0
28/10:30am 32.7 35.8 22.2 54 7.2 W 9 13 5 7 1007.9 1007.7 0.0
28/10:00am 32.7 37.1 25.0 64 5.5 WNW 11 17 6 9 1008.3 1008.1 0.0
28/09:30am 31.8 35.5 23.3 60 5.9 WSW 9 15 5 8 1008.4 1008.2 0.0
28/09:00am 30.8 35.1 23.7 66 4.9 SW 7 17 4 9 1008.3 1008.1 4.4
28/08:30am 30.0 34.9 24.6 73 3.8 SSW 7 11 4 6 1008.5 1008.3 4.2
28/08:00am 29.1 34.2 24.9 78 2.9 SSW 7 9 4 5 1008.8 1008.6 4.2
28/07:30am 28.1 33.1 24.5 81 2.5 SSW 6 9 3 5 1008.9 1008.7 4.2
28/07:00am 26.9 33.4 25.1 90 1.3 CALM 0 0 0 0 1008.5 1008.3 4.2
28/06:30am 26.2 32.4 24.6 91 1.1 CALM 0 0 0 0 1007.9 1007.7 4.2
28/06:00am 25.3 30.9 23.5 90 1.2 CALM 0 0 0 0 1007.7 1007.5 4.2
28/05:30am 25.5 31.2 23.7 90 1.2 CALM 0 0 0 0 1007.4 1007.2 4.2
28/05:00am 25.5 31.2 23.7 90 1.2 CALM 0 0 0 0 1007.1 1006.9 4.2
28/04:30am 25.8 31.6 24.0 90 1.2 CALM 0 0 0 0 1006.7 1006.5 4.2
28/04:00am 25.8 31.6 24.0 90 1.2 CALM 0 0 0 0 1006.5 1006.3 4.2
28/03:30am 26.0 32.0 24.2 90 1.2 CALM 0 0 0 0 1006.0 1005.8 4.2
28/03:00am 25.9 31.8 24.1 90 1.2 CALM 0 0 0 0 1006.1 1005.9 4.2
28/02:30am 25.7 31.5 23.9 90 1.2 CALM 0 0 0 0 1006.2 1006.0 4.2
28/02:00am 25.7 31.5 23.9 90 1.2 CALM 0 0 0 0 1006.4 1006.2 4.2
28/01:30am 25.5 31.2 23.7 90 1.2 CALM 0 0 0 0 1006.7 1006.5 4.2
28/01:00am 25.6 31.3 23.8 90 1.2 CALM 0 0 0 0 1006.7 1006.5 4.2
28/12:30am 25.7 31.5 23.9 90 1.2 CALM 0 0 0 0 1007.1 1006.9 4.2
28/12:00am 26.1 32.1 24.3 90 1.2 CALM 0 0 0 0 1007.3 1007.1 4.2
 
Date/Time
WST
Temp
°C
App
Temp
°C
Dew
Point
Rel
Hum
%
Delta-T
°C
Wind Press
QNH
hPa
Press
MSL
hPa
Rain
since 9 am
mm
Dir
 
Spd
km/h
Gust
km/h
Spd
kts
Gust
kts
27/11:30pm 25.9 31.8 24.1 90 1.2 CALM 0 0 0 0 1007.8 1007.6 4.2
27/11:00pm 25.7 31.4 23.7 89 1.4 CALM 0 0 0 0 1008.1 1007.9 4.2
27/10:30pm 25.9 31.8 24.1 90 1.2 CALM 0 0 0 0 1008.5 1008.3 4.2
27/10:00pm 25.8 31.6 24.0 90 1.2 CALM 0 0 0 0 1008.6 1008.4 4.2
27/09:30pm 25.8 30.5 24.0 90 1.2 ESE 6 7 3 4 1008.5 1008.3 4.2
27/09:00pm 25.8 31.5 23.8 89 1.4 CALM 0 0 0 0 1008.4 1008.2 4.2
27/08:30pm 25.9 30.6 23.9 89 1.4 E 6 7 3 4 1008.3 1008.1 4.2
27/08:00pm 25.8 31.5 23.8 89 1.4 CALM 0 0 0 0 1007.9 1007.7 4.2
27/07:30pm 25.8 31.5 23.7 88 1.4 CALM 0 0 0 0 1007.6 1007.4 4.2
27/07:00pm 26.0 31.2 23.5 86 1.7 NE 2 6 1 3 1007.2 1007.0 4.2
27/06:30pm 26.1 31.7 23.6 86 1.7 CALM 0 0 0 0 1006.9 1006.7 4.2
27/06:00pm 26.6 32.4 23.9 85 1.9 CALM 0 0 0 0 1006.3 1006.1 4.2
27/05:30pm 26.9 32.5 23.6 82 2.3 CALM 0 0 0 0 1005.6 1005.4 4.2
27/05:00pm 26.9 32.1 23.6 82 2.3 SE 2 7 1 4 1004.9 1004.7 4.2
27/04:30pm 26.4 32.0 23.5 84 2.0 CALM 0 0 0 0 1004.5 1004.3 4.2
27/04:00pm 26.0 31.4 23.3 85 1.8 CALM 0 0 0 0 1004.4 1004.2 4.2
27/03:30pm 25.7 29.8 23.0 85 1.8 NNE 6 7 3 4 1005.2 1005.0 4.2
27/03:00pm 25.9 30.2 23.6 87 1.6 WNW 7 11 4 6 1005.7 1005.5 4.0
27/02:30pm 25.8 31.2 23.3 86 1.7 CALM 0 0 0 0 1005.6 1005.4 3.8
27/02:00pm 25.4 30.7 23.1 87 1.6 CALM 0 0 0 0 1005.4 1005.2 3.8
27/01:30pm 25.0 27.7 22.1 84 1.9 ENE 11 19 6 10 1006.4 1006.2 3.4
27/01:00pm 26.5 30.0 22.1 77 3.0 ESE 7 11 4 6 1007.2 1007.0 0.2
27/12:30pm 28.2 29.3 22.0 69 4.2 WNW 19 32 10 17 1006.4 1006.2 0.0
27/12:00pm 31.5 34.8 22.5 59 6.2 S 9 15 5 8 1006.6 1006.4 0.0
27/11:30am 31.9 34.8 23.2 60 6.0 S 13 19 7 10 1007.0 1006.8 0.0
27/11:00am 32.9 36.7 23.5 57 6.5 SSW 9 15 5 8 1008.0 1007.8 0.0
27/10:30am 33.1 36.8 22.5 53 7.3 WNW 7 13 4 7 1008.3 1008.1 0.0
27/10:00am 32.7 37.0 23.6 58 6.3 W 7 11 4 6 1008.3 1008.1 0.0
27/09:30am 32.4 37.2 24.2 62 5.7 WSW 6 9 3 5 1007.8 1007.6 0.0
27/09:00am 30.6 35.4 24.5 70 4.3 SSE 7 9 4 5 1008.1 1007.9 1.2
27/08:30am 30.0 34.7 23.9 70 4.2 SW 6 11 3 6 1008.2 1008.0 1.2
27/08:00am 29.1 33.6 24.0 74 3.5 S 7 9 4 5 1008.1 1007.9 1.2
27/07:30am 28.5 33.1 24.1 77 3.0 S 7 11 4 6 1008.1 1007.9 1.2
27/07:00am 27.7 32.3 24.1 81 2.5 SSE 7 9 4 5 1008.0 1007.8 1.0
27/06:30am 26.7 32.8 24.5 88 1.5 CALM 0 0 0 0 1007.5 1007.3 1.0
27/06:00am 25.5 31.2 23.7 90 1.2 CALM 0 0 0 0 1007.2 1007.0 1.0
27/05:30am 25.3 30.4 23.4 89 1.3 NNW 2 7 1 4 1007.1 1006.9 1.0
27/05:00am 25.4 30.8 23.3 88 1.4 CALM 0 0 0 0 1006.8 1006.6 1.0
27/04:30am 25.5 30.9 23.2 87 1.6 CALM 0 0 0 0 1006.3 1006.1 1.0
27/04:00am 26.0 30.8 23.5 86 1.7 SW 4 6 2 3 1006.1 1005.9 1.0
27/03:30am 26.1 30.5 23.8 87 1.6 S 7 13 4 7 1005.6 1005.4 1.0
27/03:00am 26.2 32.3 24.4 90 1.2 CALM 0 0 0 0 1005.5 1005.3 1.0
27/02:30am 26.1 32.0 24.1 89 1.4 CALM 0 0 0 0 1005.3 1005.1 1.0
27/02:00am 26.3 32.3 24.3 89 1.4 CALM 0 0 0 0 1005.6 1005.4 1.0
27/01:30am 26.2 32.2 24.2 89 1.4 CALM 0 7 0 4 1006.0 1005.8 1.0
27/01:00am 26.3 32.3 24.2 88 1.5 CALM 0 0 0 0 1006.3 1006.1 1.0
27/12:30am 26.4 32.4 24.2 88 1.5 CALM 0 0 0 0 1006.8 1006.6 1.0
27/12:00am 26.5 32.5 24.3 88 1.5 CALM 0 0 0 0 1007.3 1007.1 1.0
 
Date/Time
WST
Temp
°C
App
Temp
°C
Dew
Point
Rel
Hum
%
Delta-T
°C
Wind Press
QNH
hPa
Press
MSL
hPa
Rain
since 9 am
mm
Dir
 
Spd
km/h
Gust
km/h
Spd
kts
Gust
kts
26/11:30pm 26.5 32.5 24.2 87 1.6 CALM 0 0 0 0 1007.7 1007.5 1.0
26/11:00pm 26.6 32.6 24.3 87 1.6 CALM 0 0 0 0 1008.2 1008.0 1.0
26/10:30pm 26.6 32.5 24.1 86 1.7 CALM 0 0 0 0 1008.6 1008.4 1.0
26/10:00pm 27.1 33.2 24.4 85 1.9 CALM 0 0 0 0 1008.6 1008.4 1.0
26/09:30pm 27.4 33.4 24.3 83 2.1 CALM 0 0 0 0 1008.7 1008.5 1.0
26/09:00pm 28.1 33.1 23.9 78 2.9 WNW 4 7 2 4 1008.5 1008.3 1.0
26/08:30pm 28.5 33.0 23.9 76 3.2 WNW 7 11 4 6 1008.2 1008.0 1.0
26/08:00pm 28.5 33.1 24.1 77 3.1 NW 7 9 4 5 1007.8 1007.6 1.0
26/07:30pm 28.7 33.4 24.0 76 3.3 WNW 6 9 3 5 1007.8 1007.6 1.0
26/07:00pm 28.7 33.3 23.8 75 3.4 NW 6 11 3 6 1007.5 1007.3 1.0
26/06:30pm 29.1 32.9 23.5 72 3.9 NW 9 15 5 8 1006.7 1006.5 1.0
26/06:00pm 29.5 33.2 23.2 69 4.3 NW 9 17 5 9 1006.3 1006.1 1.0
26/05:30pm 29.7 33.4 23.9 71 4.0 WNW 11 20 6 11 1005.6 1005.4 1.0
26/05:00pm 29.9 33.4 23.6 69 4.4 WNW 11 19 6 10 1004.9 1004.7 1.0
26/04:30pm 31.7 33.7 23.0 60 6.0 NW 17 20 9 11 1004.6 1004.4 0.0
26/04:00pm 32.2 34.9 23.4 59 6.1 NW 15 24 8 13 1004.2 1004.0 0.0
26/03:30pm 31.6 33.5 23.4 61 5.7 N 19 26 10 14 1004.2 1004.0 0.0
26/03:00pm 31.8 34.4 23.9 63 5.5 NNW 17 22 9 12 1003.8 1003.6 0.0
26/02:30pm 33.0 36.0 24.7 61 5.8 NNW 17 26 9 14 1004.2 1004.0 0.0
26/02:00pm 32.3 35.7 24.6 64 5.4 NNW 15 22 8 12 1004.8 1004.6 0.0
26/01:30pm 32.5 35.3 23.7 59 6.1 NW 15 24 8 13 1005.3 1005.1 0.0
26/01:00pm 32.2 34.8 24.0 62 5.7 NNW 17 24 9 13 1005.8 1005.6 0.0
26/12:30pm 33.2 37.1 22.9 54 7.1 NNW 7 13 4 7 1006.3 1006.1 0.0
26/12:00pm 32.8 37.3 24.0 60 6.2 NNW 7 11 4 6 1006.7 1006.5 0.0
26/11:30am 32.8 37.0 23.2 57 6.6 SE 6 9 3 5 1007.2 1007.0 0.0
26/11:00am 32.6 36.7 23.3 58 6.4 W 7 13 4 7 1007.5 1007.3 0.0
26/10:30am 32.7 37.8 24.7 62 5.6 NNE 6 7 3 4 1007.9 1007.7 0.0
26/10:00am 32.1 36.4 23.3 59 6.1 SW 6 9 3 5 1008.3 1008.1 0.0
26/09:30am 31.6 36.3 23.9 63 5.4 NW 6 11 3 6 1008.5 1008.3 0.0
26/09:00am 30.8 35.5 24.0 67 4.7 SSW 6 11 3 6 1008.8 1008.6 3.0
26/08:30am 30.4 35.8 24.5 70 4.1 W 4 9 2 5 1008.9 1008.7 3.0
26/08:00am 29.4 34.8 24.5 75 3.4 W 4 9 2 5 1008.8 1008.6 3.0
26/07:30am 29.1 35.5 24.9 78 2.9 CALM 0 0 0 0 1008.7 1008.5 3.0
26/07:00am 28.0 34.0 24.8 83 2.2 SSE 2 6 1 3 1008.4 1008.2 3.0
26/06:30am 27.4 34.2 25.6 90 1.3 CALM 0 0 0 0 1008.0 1007.8 3.0
26/06:00am 26.5 32.8 24.7 90 1.3 CALM 0 0 0 0 1007.7 1007.5 3.0
26/05:30am 26.4 32.5 24.4 89 1.4 CALM 0 0 0 0 1007.4 1007.2 3.0
26/05:00am 26.5 31.6 24.7 90 1.3 S 6 7 3 4 1007.4 1007.2 2.8
26/04:30am 26.6 32.9 24.8 90 1.3 CALM 0 0 0 0 1007.4 1007.2 2.8
26/04:00am 26.6 32.8 24.6 89 1.4 CALM 0 0 0 0 1007.1 1006.9 2.8
26/03:30am 26.5 32.6 24.5 89 1.4 CALM 0 0 0 0 1007.0 1006.8 2.8
26/03:00am 26.7 32.2 24.7 89 1.4 E 4 6 2 3 1006.9 1006.7 2.8
26/02:30am 26.7 32.6 24.7 89 1.4 NNE 2 6 1 3 1006.9 1006.7 2.8
26/02:00am 26.6 32.7 24.4 88 1.5 CALM 0 0 0 0 1006.9 1006.7 2.8
26/01:30am 26.7 33.0 24.7 89 1.4 CALM 0 0 0 0 1007.4 1007.2 2.8
26/01:00am 26.7 32.8 24.5 88 1.5 CALM 0 0 0 0 1007.8 1007.6 2.8
26/12:30am 27.0 32.8 24.6 87 1.7 WNW 2 6 1 3 1008.2 1008.0 2.8
26/12:00am 27.0 33.3 24.8 88 1.5 CALM 0 0 0 0 1008.6 1008.4 2.8

Other Formats:

Comma delimited format used in spreadsheet applications
http://www.bom.gov.au/fwo/IDW60801/IDW60801.94100.axf

JavaScript Object Notation format (JSON) in row-major order
http://www.bom.gov.au/fwo/IDW60801/IDW60801.94100.json